Time;durP1;ratioP1;P1;durP2;ratioP2;P2;SDS_P1;SDS_P2;PMS_P1;PMS_P2;Temp;Humidity;BMP_temperature;BMP_pressure;BME280_temperature;BME280_humidity;BME280_pressure;Samples;Min_cycle;Max_cycle;Signal;HPM_P1;HPM_P2
2023/07/12 00:00:13;;;;;;;5.22;2.03;;;;;;;;;;4980286;28;93089;-81
2023/07/12 00:02:47;;;;;;;5.32;1.80;;;;;;;;;;4979578;28;92443;-81
2023/07/12 00:05:14;;;;;;;5.43;2.08;;;;;;;;;;4981734;28;93027;-81
2023/07/12 00:07:41;;;;;;;7.90;1.95;;;;;;;;;;4980333;28;92758;-81
2023/07/12 00:10:15;;;;;;;5.35;1.90;;;;;;;;;;4978447;28;92512;-81
2023/07/12 00:12:41;;;;;;;5.90;1.90;;;;;;;;;;4991779;28;92706;-81
2023/07/12 00:15:10;;;;;;;4.53;2.10;;;;;;;;;;4987182;28;93213;-81
2023/07/12 00:17:37;;;;;;;4.95;2.00;;;;;;;;;;4991836;28;92564;-82
2023/07/12 00:20:13;;;;;;;5.22;2.03;;;;;;;;;;4975841;28;95243;-80
2023/07/12 00:22:39;;;;;;;5.35;1.88;;;;;;;;;;4982826;28;92845;-80
2023/07/12 00:25:06;;;;;;;5.53;1.83;;;;;;;;;;4987442;28;92742;-81
2023/07/12 00:27:32;;;;;;;6.95;2.13;;;;;;;;;;4998656;28;94141;-82
2023/07/12 00:29:59;;;;;;;6.00;1.67;;;;;;;;;;4995007;28;92406;-82
2023/07/12 00:32:25;;;;;;;5.47;1.77;;;;;;;;;;4990789;28;94442;-82
2023/07/12 00:34:52;;;;;;;6.03;1.70;;;;;;;;;;4995389;28;94322;-82
2023/07/12 00:37:18;;;;;;;6.20;2.10;;;;;;;;;;4977100;28;91746;-81
2023/07/12 00:39:45;;;;;;;5.40;1.80;;;;;;;;;;4974725;28;92472;-81
2023/07/12 00:42:15;;;;;;;6.72;1.73;;;;;;;;;;4984504;28;93247;-81
2023/07/12 00:44:46;;;;;;;6.30;1.85;;;;;;;;;;4978148;28;95821;-82
2023/07/12 00:47:13;;;;;;;5.00;1.83;;;;;;;;;;4980956;28;92447;-81
2023/07/12 00:49:40;;;;;;;5.97;1.67;;;;;;;;;;4985201;28;93211;-81
2023/07/12 00:52:09;;;;;;;6.57;1.58;;;;;;;;;;4986053;28;95444;-82
2023/07/12 00:55:08;;;;;;;5.32;1.70;;;;;;;;;;4985543;28;96447;-82
2023/07/12 00:57:36;;;;;;;6.88;1.70;;;;;;;;;;4977769;28;92436;-82
2023/07/12 01:00:10;;;;;;;4.55;1.58;;;;;;;;;;4977973;28;93439;-82
2023/07/12 01:02:40;;;;;;;5.43;1.85;;;;;;;;;;4979881;28;93595;-81
2023/07/12 01:05:08;;;;;;;4.65;1.52;;;;;;;;;;4974315;28;92379;-82
2023/07/12 01:07:35;;;;;;;6.72;1.85;;;;;;;;;;4979097;28;92994;-82
2023/07/12 01:10:01;;;;;;;6.82;1.90;;;;;;;;;;4971477;28;94813;-79
2023/07/12 01:12:28;;;;;;;6.65;1.90;;;;;;;;;;4985812;28;94993;-80
2023/07/12 01:14:55;;;;;;;8.02;2.10;;;;;;;;;;4983358;28;93530;-81
2023/07/12 01:17:23;;;;;;;6.80;2.15;;;;;;;;;;4978924;28;92845;-82
2023/07/12 01:19:49;;;;;;;7.90;1.92;;;;;;;;;;4987984;28;92882;-80
2023/07/12 01:22:16;;;;;;;7.97;2.30;;;;;;;;;;4975398;28;94334;-79
2023/07/12 01:24:43;;;;;;;7.72;2.40;;;;;;;;;;4981482;28;93004;-81
2023/07/12 01:27:18;;;;;;;8.57;2.05;;;;;;;;;;4986321;28;92307;-80
2023/07/12 01:29:45;;;;;;;11.55;2.42;;;;;;;;;;4979454;28;92434;-79
2023/07/12 01:32:13;;;;;;;7.45;2.20;;;;;;;;;;4985277;28;92991;-79
2023/07/12 01:34:44;;;;;;;7.07;1.88;;;;;;;;;;4986573;28;98417;-82
2023/07/12 01:37:11;;;;;;;6.57;1.60;;;;;;;;;;4979591;28;92457;-81
2023/07/12 01:39:38;;;;;;;;;;;;;;;;;;4983256;28;93139;-83
2023/07/12 01:42:04;;;;;;;4.32;1.50;;;;;;;;;;4988001;28;93515;-83
2023/07/12 01:44:31;;;;;;;6.00;1.70;;;;;;;;;;4984907;28;92463;-81
2023/07/12 01:46:57;;;;;;;6.18;1.73;;;;;;;;;;4984339;28;92755;-82
2023/07/12 01:49:25;;;;;;;6.97;1.70;;;;;;;;;;4976424;28;92640;-81
2023/07/12 01:51:51;;;;;;;7.00;1.88;;;;;;;;;;4987592;28;95634;-82
2023/07/12 01:54:18;;;;;;;6.30;1.67;;;;;;;;;;4989722;28;93491;-83
2023/07/12 01:56:44;;;;;;;5.43;1.58;;;;;;;;;;4983812;28;92435;-82
2023/07/12 01:59:12;;;;;;;;;;;;;;;;;;4968127;28;96959;-83
2023/07/12 02:01:38;;;;;;;7.88;2.15;;;;;;;;;;4980683;28;96655;-79
2023/07/12 02:04:05;;;;;;;5.82;1.70;;;;;;;;;;4977507;28;92847;-82
2023/07/12 02:06:32;;;;;;;6.13;1.90;;;;;;;;;;4991129;28;92656;-81
2023/07/12 02:08:58;;;;;;;6.72;1.63;;;;;;;;;;4993204;28;93114;-83
2023/07/12 02:11:25;;;;;;;6.18;1.63;;;;;;;;;;4987619;28;92652;-80
2023/07/12 02:13:51;;;;;;;6.10;1.73;;;;;;;;;;4987151;28;94119;-82
2023/07/12 02:16:18;;;;;;;7.28;1.77;;;;;;;;;;4987661;28;91788;-85
2023/07/12 02:18:45;;;;;;;7.00;1.90;;;;;;;;;;4972993;28;92666;-83
2023/07/12 02:21:12;;;;;;;8.80;2.17;;;;;;;;;;4986657;28;94078;-84
2023/07/12 02:23:38;;;;;;;6.97;2.05;;;;;;;;;;4974918;28;94871;-85
2023/07/12 02:26:04;;;;;;;8.07;1.80;;;;;;;;;;4980751;28;94194;-82
2023/07/12 02:28:31;;;;;;;8.52;2.20;;;;;;;;;;4985447;28;95575;-80
2023/07/12 02:31:14;;;;;;;8.55;2.15;;;;;;;;;;4991289;28;92383;-81
2023/07/12 02:33:40;;;;;;;7.25;2.20;;;;;;;;;;4978814;28;95343;-80
2023/07/12 02:36:07;;;;;;;7.20;1.85;;;;;;;;;;4988699;28;92767;-81
2023/07/12 02:38:34;;;;;;;7.53;2.00;;;;;;;;;;4986943;28;92945;-81
2023/07/12 02:41:00;;;;;;;8.25;2.40;;;;;;;;;;4982388;28;91829;-81
2023/07/12 02:43:27;;;;;;;7.88;2.15;;;;;;;;;;4988196;28;92652;-80
2023/07/12 02:45:53;;;;;;;5.95;1.90;;;;;;;;;;4989443;28;94652;-81
2023/07/12 02:48:20;;;;;;;6.65;1.70;;;;;;;;;;4988031;28;95523;-82
2023/07/12 02:50:46;;;;;;;7.45;2.20;;;;;;;;;;4994007;28;92910;-80
2023/07/12 02:53:13;;;;;;;7.93;2.00;;;;;;;;;;4982858;28;92995;-79
2023/07/12 02:55:40;;;;;;;7.70;1.90;;;;;;;;;;4994041;28;92468;-82
2023/07/12 02:58:06;;;;;;;6.88;1.75;;;;;;;;;;4991363;28;93020;-80
2023/07/12 03:00:33;;;;;;;7.25;1.95;;;;;;;;;;4979009;28;93034;-81
2023/07/12 03:02:59;;;;;;;5.70;1.80;;;;;;;;;;4980022;28;92516;-79
2023/07/12 03:05:26;;;;;;;8.15;2.30;;;;;;;;;;4991095;28;93855;-83
2023/07/12 03:07:53;;;;;;;8.10;2.40;;;;;;;;;;4987621;28;93444;-83
2023/07/12 03:10:19;;;;;;;9.82;2.33;;;;;;;;;;4991965;28;93076;-84
2023/07/12 03:12:46;;;;;;;10.48;2.38;;;;;;;;;;4983832;28;94844;-79
2023/07/12 03:15:12;;;;;;;7.53;2.40;;;;;;;;;;4988460;28;92417;-82
2023/07/12 03:17:39;;;;;;;9.32;2.35;;;;;;;;;;4991759;28;92830;-79
2023/07/12 03:20:06;;;;;;;9.73;3.00;;;;;;;;;;4986705;28;94716;-79
2023/07/12 03:22:32;;;;;;;8.50;2.25;;;;;;;;;;4992499;28;92784;-80
2023/07/12 03:24:59;;;;;;;11.27;2.70;;;;;;;;;;4992883;28;93332;-82
2023/07/12 03:27:25;;;;;;;8.70;2.97;;;;;;;;;;4993253;28;92906;-83
2023/07/12 03:29:52;;;;;;;8.15;2.72;;;;;;;;;;4988780;28;91705;-81
2023/07/12 03:32:22;;;;;;;8.65;2.60;;;;;;;;;;4989509;28;93297;-80
2023/07/12 03:34:49;;;;;;;12.82;4.00;;;;;;;;;;4988342;28;92953;-81
2023/07/12 03:37:15;;;;;;;8.73;3.03;;;;;;;;;;4989999;28;95688;-82
2023/07/12 03:39:43;;;;;;;10.55;4.32;;;;;;;;;;4982183;28;93694;-78
2023/07/12 03:42:10;;;;;;;11.75;3.70;;;;;;;;;;4993588;28;93092;-79
2023/07/12 03:44:36;;;;;;;10.70;3.83;;;;;;;;;;4979273;28;92748;-83
2023/07/12 03:47:03;;;;;;;13.02;4.20;;;;;;;;;;4982515;28;95903;-79
2023/07/12 03:49:30;;;;;;;13.20;4.68;;;;;;;;;;4982157;28;93091;-82
2023/07/12 03:51:56;;;;;;;10.18;4.05;;;;;;;;;;4984512;28;92672;-80
2023/07/12 03:54:23;;;;;;;14.73;6.20;;;;;;;;;;4978929;28;92296;-80
2023/07/12 03:56:50;;;;;;;11.65;5.50;;;;;;;;;;4982890;28;92502;-80
2023/07/12 03:59:19;;;;;;;10.00;4.03;;;;;;;;;;4977573;28;93546;-81
2023/07/12 04:01:45;;;;;;;10.63;3.70;;;;;;;;;;4980419;28;94893;-80
2023/07/12 04:04:12;;;;;;;8.07;3.25;;;;;;;;;;4978434;28;95114;-82
2023/07/12 04:06:38;;;;;;;11.23;5.10;;;;;;;;;;4987031;28;93054;-79
2023/07/12 04:09:05;;;;;;;10.23;3.22;;;;;;;;;;4983981;28;92877;-80
2023/07/12 04:11:32;;;;;;;11.32;4.45;;;;;;;;;;4979134;28;95859;-79
2023/07/12 04:14:02;;;;;;;9.15;3.22;;;;;;;;;;4976629;28;93292;-80
2023/07/12 04:16:29;;;;;;;9.23;3.20;;;;;;;;;;4989632;28;92997;-80
2023/07/12 04:18:56;;;;;;;10.90;3.58;;;;;;;;;;4996352;28;92780;-83
2023/07/12 04:21:23;;;;;;;13.90;4.18;;;;;;;;;;4984712;28;92447;-82
2023/07/12 04:23:50;;;;;;;10.27;4.22;;;;;;;;;;4992401;28;92776;-80
2023/07/12 04:26:17;;;;;;;10.38;4.25;;;;;;;;;;4982978;28;96475;-82
2023/07/12 04:28:48;;;;;;;9.88;4.00;;;;;;;;;;5006274;28;92769;-81
2023/07/12 04:31:16;;;;;;;9.57;3.45;;;;;;;;;;4986945;28;92845;-81
2023/07/12 04:33:44;;;;;;;11.70;4.05;;;;;;;;;;4994098;28;95698;-79
2023/07/12 04:36:10;;;;;;;;;;;;;;;;;;4994284;28;92586;-81
2023/07/12 04:38:37;;;;;;;8.65;3.20;;;;;;;;;;5000824;28;106083;-80
2023/07/12 04:41:04;;;;;;;10.27;3.42;;;;;;;;;;5013878;28;93181;-83
2023/07/12 04:43:31;;;;;;;10.30;4.65;;;;;;;;;;5023313;28;92004;-79
2023/07/12 04:45:57;;;;;;;11.25;5.18;;;;;;;;;;5016157;28;94610;-79
2023/07/12 04:48:24;;;;;;;10.30;4.32;;;;;;;;;;5000906;28;91716;-80
2023/07/12 04:50:51;;;;;;;9.00;3.28;;;;;;;;;;4995203;28;94651;-82
2023/07/12 04:53:19;;;;;;;8.57;3.45;;;;;;;;;;5004284;28;95039;-80
2023/07/12 04:55:46;;;;;;;10.80;4.43;;;;;;;;;;5003657;28;92465;-81
2023/07/12 04:58:13;;;;;;;12.90;5.63;;;;;;;;;;4995843;28;92522;-81
2023/07/12 05:00:40;;;;;;;11.55;4.13;;;;;;;;;;4979275;28;93069;-81
2023/07/12 05:03:06;;;;;;;11.10;4.80;;;;;;;;;;4991754;28;93018;-81
2023/07/12 05:05:33;;;;;;;9.15;4.15;;;;;;;;;;4991418;28;94061;-79
2023/07/12 05:07:59;;;;;;;11.07;5.90;;;;;;;;;;4981655;28;92335;-79
2023/07/12 05:10:26;;;;;;;12.57;4.57;;;;;;;;;;4983434;28;92409;-80
2023/07/12 05:12:53;;;;;;;10.32;4.10;;;;;;;;;;4982937;28;93100;-81
2023/07/12 05:15:20;;;;;;;13.18;5.13;;;;;;;;;;4979605;28;95224;-80
2023/07/12 05:17:46;;;;;;;9.88;4.47;;;;;;;;;;4985606;28;95285;-79
2023/07/12 05:20:13;;;;;;;12.60;4.40;;;;;;;;;;4987031;28;93368;-82
2023/07/12 05:22:40;;;;;;;12.57;5.40;;;;;;;;;;4990177;28;92603;-80
2023/07/12 05:25:07;;;;;;;11.43;5.65;;;;;;;;;;4992104;28;92901;-80
2023/07/12 05:27:33;;;;;;;13.43;5.68;;;;;;;;;;4993906;28;92439;-79
2023/07/12 05:30:00;;;;;;;12.85;4.88;;;;;;;;;;4991358;28;95516;-79
2023/07/12 05:32:27;;;;;;;12.32;5.22;;;;;;;;;;4980667;28;92771;-79
2023/07/12 05:34:53;;;;;;;12.02;4.88;;;;;;;;;;4989768;28;93048;-80
2023/07/12 05:37:20;;;;;;;13.70;5.90;;;;;;;;;;4976470;28;93426;-80
2023/07/12 05:39:46;;;;;;;12.32;6.05;;;;;;;;;;4984081;28;95879;-79
2023/07/12 05:42:13;;;;;;;10.05;4.35;;;;;;;;;;4990246;28;92794;-79
2023/07/12 05:44:39;;;;;;;13.32;6.20;;;;;;;;;;4993453;28;92759;-79
2023/07/12 05:47:06;;;;;;;10.63;5.60;;;;;;;;;;4984462;28;92533;-78
2023/07/12 05:49:33;;;;;;;12.82;5.78;;;;;;;;;;4981221;28;92798;-79
2023/07/12 05:51:59;;;;;;;10.55;4.55;;;;;;;;;;4982279;28;96083;-81
2023/07/12 05:54:26;;;;;;;9.98;4.00;;;;;;;;;;4984833;28;92690;-80
2023/07/12 05:56:52;;;;;;;14.68;5.25;;;;;;;;;;4987525;28;95869;-79
2023/07/12 05:59:21;;;;;;;11.35;5.45;;;;;;;;;;4999518;28;93139;-79
2023/07/12 06:01:48;;;;;;;11.20;5.05;;;;;;;;;;4981078;28;92465;-78
2023/07/12 06:04:14;;;;;;;11.25;5.20;;;;;;;;;;4984174;28;94865;-78
2023/07/12 06:06:41;;;;;;;11.48;5.20;;;;;;;;;;4990666;28;92588;-83
2023/07/12 06:09:08;;;;;;;11.68;5.05;;;;;;;;;;4992641;28;93001;-78
2023/07/12 06:11:34;;;;;;;11.52;4.80;;;;;;;;;;4984741;28;93670;-79
2023/07/12 06:14:01;;;;;;;8.75;3.90;;;;;;;;;;4987837;28;92906;-81
2023/07/12 06:16:27;;;;;;;12.45;3.60;;;;;;;;;;4986457;28;93632;-80
2023/07/12 06:18:54;;;;;;;9.65;3.50;;;;;;;;;;4988886;28;92975;-81
2023/07/12 06:21:21;;;;;;;10.77;3.75;;;;;;;;;;4987554;28;92171;-81
2023/07/12 06:23:48;;;;;;;9.43;3.58;;;;;;;;;;4992527;28;92433;-80
2023/07/12 06:26:14;;;;;;;10.43;3.83;;;;;;;;;;4992117;28;93059;-82
2023/07/12 06:28:41;;;;;;;10.07;3.15;;;;;;;;;;4990422;28;94891;-81
2023/07/12 06:31:08;;;;;;;11.45;3.80;;;;;;;;;;4988180;28;93372;-81
2023/07/12 06:33:35;;;;;;;9.43;3.70;;;;;;;;;;4992254;28;92991;-82
2023/07/12 06:36:02;;;;;;;13.50;5.38;;;;;;;;;;4992749;28;92797;-81
2023/07/12 06:38:28;;;;;;;10.77;3.70;;;;;;;;;;4991702;28;93193;-81
2023/07/12 06:40:55;;;;;;;7.93;3.28;;;;;;;;;;4990384;28;93033;-82
2023/07/12 06:43:23;;;;;;;7.95;3.17;;;;;;;;;;4974360;28;93873;-85
2023/07/12 06:45:50;;;;;;;10.23;3.63;;;;;;;;;;4993165;28;92711;-83
2023/07/12 06:48:16;;;;;;;10.98;3.72;;;;;;;;;;4994073;28;92378;-84
2023/07/12 06:50:46;;;;;;;7.90;3.35;;;;;;;;;;4995785;28;94766;-84
2023/07/12 06:53:13;;;;;;;10.18;3.60;;;;;;;;;;4991702;28;94857;-84
2023/07/12 06:55:43;;;;;;;12.25;3.95;;;;;;;;;;4992502;28;96504;-82
2023/07/12 06:58:10;;;;;;;8.82;3.30;;;;;;;;;;4996515;28;93428;-83
2023/07/12 07:00:41;;;;;;;9.45;3.50;;;;;;;;;;4989032;28;92505;-84
2023/07/12 07:03:09;;;;;;;10.57;3.67;;;;;;;;;;4990849;28;94303;-85
2023/07/12 07:05:40;;;;;;;9.65;3.30;;;;;;;;;;4975031;28;95144;-83
2023/07/12 07:08:06;;;;;;;8.93;3.45;;;;;;;;;;4984518;28;92603;-81
2023/07/12 07:10:33;;;;;;;8.65;3.22;;;;;;;;;;4984360;28;94580;-84
2023/07/12 07:13:00;;;;;;;10.05;3.30;;;;;;;;;;4991842;28;92819;-85
2023/07/12 07:15:27;;;;;;;9.90;3.20;;;;;;;;;;4991619;28;92728;-84
2023/07/12 07:17:53;;;;;;;10.38;3.28;;;;;;;;;;4990906;28;95276;-82
2023/07/12 07:20:20;;;;;;;9.70;2.92;;;;;;;;;;4977241;28;92700;-84
2023/07/12 07:22:47;;;;;;;7.82;2.90;;;;;;;;;;4993958;28;94056;-82
2023/07/12 07:25:14;;;;;;;8.35;2.80;;;;;;;;;;4995343;28;93118;-84
2023/07/12 07:27:47;;;;;;;;;;;;;;;;;;4998133;28;92474;-82
2023/07/12 07:30:13;;;;;;;8.10;2.75;;;;;;;;;;5011784;28;94168;-83
2023/07/12 07:32:40;;;;;;;9.32;2.90;;;;;;;;;;5015496;28;94100;-83
2023/07/12 07:35:07;;;;;;;8.18;2.97;;;;;;;;;;5008319;28;92334;-83
2023/07/12 07:37:34;;;;;;;8.85;2.90;;;;;;;;;;5003904;28;92470;-84
2023/07/12 07:40:00;;;;;;;12.25;3.15;;;;;;;;;;4992472;28;92426;-82
2023/07/12 07:42:27;;;;;;;7.80;2.90;;;;;;;;;;4989614;28;94941;-82
2023/07/12 07:44:54;;;;;;;13.30;3.63;;;;;;;;;;5001029;28;93179;-81
2023/07/12 07:47:20;;;;;;;10.27;3.10;;;;;;;;;;4989846;28;94340;-83
2023/07/12 07:49:47;;;;;;;8.52;2.80;;;;;;;;;;4990010;28;93220;-82
2023/07/12 07:52:14;;;;;;;9.98;3.80;;;;;;;;;;4988713;28;92821;-83
2023/07/12 07:54:40;;;;;;;12.63;4.00;;;;;;;;;;4985811;28;93165;-82
2023/07/12 07:57:07;;;;;;;14.98;4.20;;;;;;;;;;4979069;28;93114;-82
2023/07/12 07:59:34;;;;;;;12.07;3.30;;;;;;;;;;4987969;28;92094;-85
2023/07/12 08:02:00;;;;;;;12.07;3.63;;;;;;;;;;4987812;28;92723;-84
2023/07/12 08:04:27;;;;;;;10.65;3.60;;;;;;;;;;4980165;28;93670;-82
2023/07/12 08:06:56;;;;;;;11.93;3.40;;;;;;;;;;4990651;28;95026;-81
2023/07/12 08:09:23;;;;;;;8.23;3.25;;;;;;;;;;4981250;28;95234;-83
2023/07/12 08:11:49;;;;;;;12.88;3.97;;;;;;;;;;4975897;28;94809;-82
2023/07/12 08:14:18;;;;;;;11.77;3.72;;;;;;;;;;4970003;28;92588;-80
2023/07/12 08:16:45;;;;;;;11.05;3.08;;;;;;;;;;4974734;28;92983;-82
2023/07/12 08:19:11;;;;;;;11.88;3.45;;;;;;;;;;4969754;28;92905;-81
2023/07/12 08:21:44;;;;;;;16.40;3.78;;;;;;;;;;4972971;28;93824;-80
2023/07/12 08:24:11;;;;;;;10.80;3.50;;;;;;;;;;4967881;28;93306;-81
2023/07/12 08:26:37;;;;;;;10.05;3.20;;;;;;;;;;4976851;28;92509;-81
2023/07/12 08:29:09;;;;;;;11.30;3.20;;;;;;;;;;4975701;28;94763;-81
2023/07/12 08:31:36;;;;;;;15.77;4.30;;;;;;;;;;4968695;28;95613;-81
2023/07/12 08:34:02;;;;;;;13.13;3.90;;;;;;;;;;4973508;28;92515;-81
2023/07/12 08:36:29;;;;;;;11.38;3.80;;;;;;;;;;4970675;28;94027;-81
2023/07/12 08:38:56;;;;;;;10.18;3.67;;;;;;;;;;4973758;28;93614;-81
2023/07/12 08:41:24;;;;;;;12.15;3.70;;;;;;;;;;4979000;28;93340;-80
2023/07/12 08:43:51;;;;;;;11.68;3.40;;;;;;;;;;4978538;28;93634;-79
2023/07/12 08:46:20;;;;;;;13.07;3.95;;;;;;;;;;4979020;28;93031;-80
2023/07/12 08:48:51;;;;;;;11.27;3.17;;;;;;;;;;4978929;28;92947;-80
2023/07/12 08:51:22;;;;;;;12.45;3.70;;;;;;;;;;4987317;28;93388;-80
2023/07/12 08:53:49;;;;;;;11.73;3.75;;;;;;;;;;4988972;28;92615;-80
2023/07/12 08:56:18;;;;;;;11.95;3.10;;;;;;;;;;4976862;28;94822;-79
2023/07/12 08:58:47;;;;;;;9.57;2.92;;;;;;;;;;4971316;28;93426;-80
2023/07/12 09:01:15;;;;;;;14.73;3.83;;;;;;;;;;4973224;28;92516;-80
2023/07/12 09:03:42;;;;;;;12.27;3.83;;;;;;;;;;4970944;28;93002;-80
2023/07/12 09:06:13;;;;;;;12.07;3.72;;;;;;;;;;4975967;28;92403;-80
2023/07/12 09:08:42;;;;;;;9.70;3.30;;;;;;;;;;4981075;28;92871;-79
2023/07/12 09:11:17;;;;;;;10.40;3.42;;;;;;;;;;4970386;28;94305;-80
2023/07/12 09:13:46;;;;;;;11.13;3.38;;;;;;;;;;4983561;28;91763;-78
2023/07/12 09:16:21;;;;;;;12.27;3.95;;;;;;;;;;4969849;28;92554;-79
2023/07/12 09:18:48;;;;;;;10.68;3.67;;;;;;;;;;4970843;28;93365;-79
2023/07/12 09:21:19;;;;;;;11.68;3.42;;;;;;;;;;4977758;28;95341;-78
2023/07/12 09:23:46;;;;;;;12.02;3.70;;;;;;;;;;4982440;28;93399;-81
2023/07/12 09:26:19;;;;;;;11.38;4.10;;;;;;;;;;4991251;28;92737;-81
2023/07/12 09:28:46;;;;;;;11.60;3.28;;;;;;;;;;4980633;28;92700;-82
2023/07/12 09:31:13;;;;;;;;;;;;;;;;;;4986353;28;92591;-80
2023/07/12 09:33:40;;;;;;;10.02;3.70;;;;;;;;;;4980347;28;92460;-86
2023/07/12 09:36:07;;;;;;;;;;;;;;;;;;4971866;28;92847;-82
2023/07/12 09:38:37;;;;;;;9.68;3.28;;;;;;;;;;4980625;28;92991;-80
2023/07/12 09:41:08;;;;;;;10.98;3.13;;;;;;;;;;4985715;28;92455;-80
2023/07/12 09:43:39;;;;;;;9.07;2.83;;;;;;;;;;4992273;28;93025;-80
2023/07/12 09:46:24;;;;;;;14.93;3.47;;;;;;;;;;4957581;28;95045;-78
2023/07/12 09:49:10;;;;;;;9.80;2.95;;;;;;;;;;4974264;28;95757;-83
2023/07/12 09:51:36;;;;;;;6.80;2.50;;;;;;;;;;4973767;28;95810;-78
2023/07/12 09:54:16;;;;;;;7.65;2.22;;;;;;;;;;4974064;28;92811;-81
2023/07/12 09:56:48;;;;;;;8.55;2.65;;;;;;;;;;4995113;28;93283;-82
2023/07/12 09:59:28;;;;;;;7.38;2.50;;;;;;;;;;4972943;28;95675;-83
2023/07/12 10:01:58;;;;;;;13.25;3.28;;;;;;;;;;4970046;28;92522;-82
2023/07/12 10:04:41;;;;;;;7.95;2.83;;;;;;;;;;4985801;28;94608;-81
2023/07/12 10:07:29;;;;;;;9.05;2.30;;;;;;;;;;4995515;28;93204;-82
2023/07/12 10:09:56;;;;;;;13.38;2.95;;;;;;;;;;4977324;28;94824;-81
2023/07/12 10:12:26;;;;;;;8.73;2.38;;;;;;;;;;4977551;28;98070;-83
2023/07/12 10:14:54;;;;;;;9.52;2.80;;;;;;;;;;4969556;28;92552;-82
2023/07/12 10:17:28;;;;;;;12.18;3.10;;;;;;;;;;4967821;28;93254;-83
2023/07/12 10:19:55;;;;;;;9.25;2.70;;;;;;;;;;4980122;28;93054;-85
2023/07/12 10:22:27;;;;;;;8.55;2.40;;;;;;;;;;4981136;28;92593;-82
2023/07/12 10:24:53;;;;;;;9.10;2.80;;;;;;;;;;4989576;28;92777;-82
2023/07/12 10:27:24;;;;;;;8.45;2.70;;;;;;;;;;4989547;28;93150;-82
2023/07/12 10:29:51;;;;;;;11.20;2.70;;;;;;;;;;4982041;28;91906;-81
2023/07/12 10:32:22;;;;;;;10.13;2.72;;;;;;;;;;4989154;28;93228;-81
2023/07/12 10:35:02;;;;;;;7.75;2.40;;;;;;;;;;4987530;28;92885;-84
2023/07/12 10:37:35;;;;;;;9.15;2.50;;;;;;;;;;4992810;28;95074;-82
2023/07/12 10:40:02;;;;;;;8.93;2.33;;;;;;;;;;4983612;28;93028;-82
2023/07/12 10:42:34;;;;;;;9.70;2.53;;;;;;;;;;4960951;28;92394;-82
2023/07/12 10:45:02;;;;;;;11.90;2.55;;;;;;;;;;4981026;28;94675;-83
2023/07/12 10:47:31;;;;;;;7.55;2.63;;;;;;;;;;4989356;28;93011;-82
2023/07/12 10:50:02;;;;;;;10.18;2.83;;;;;;;;;;5000655;28;92493;-83
2023/07/12 10:52:30;;;;;;;9.13;2.70;;;;;;;;;;4996311;28;92686;-82
2023/07/12 10:55:03;;;;;;;7.95;2.13;;;;;;;;;;4990265;28;91695;-81
2023/07/12 10:57:38;;;;;;;8.05;2.60;;;;;;;;;;4996791;28;92437;-81
2023/07/12 11:00:13;;;;;;;9.55;2.85;;;;;;;;;;4988945;28;93683;-81
2023/07/12 11:02:43;;;;;;;9.23;2.53;;;;;;;;;;4989370;28;96498;-82
2023/07/12 11:05:29;;;;;;;7.40;2.47;;;;;;;;;;4992656;28;95782;-82
2023/07/12 11:07:55;;;;;;;9.43;2.58;;;;;;;;;;5000619;28;94370;-81
2023/07/12 11:10:24;;;;;;;7.50;2.47;;;;;;;;;;4992082;28;94041;-81
2023/07/12 11:12:53;;;;;;;9.15;2.30;;;;;;;;;;4985359;28;95447;-81
2023/07/12 11:15:22;;;;;;;7.13;2.17;;;;;;;;;;4992601;28;94195;-82
2023/07/12 11:18:00;;;;;;;7.85;1.88;;;;;;;;;;4987983;28;93186;-81
2023/07/12 11:20:28;;;;;;;9.02;2.40;;;;;;;;;;4992198;28;91796;-80
2023/07/12 11:22:55;;;;;;;6.38;2.25;;;;;;;;;;4986616;28;93170;-81
2023/07/12 11:25:30;;;;;;;7.72;2.20;;;;;;;;;;4989508;28;92467;-81
2023/07/12 11:27:58;;;;;;;8.35;2.47;;;;;;;;;;4987805;28;95543;-80
2023/07/12 11:30:28;;;;;;;6.45;2.08;;;;;;;;;;4981681;28;92651;-81
2023/07/12 11:33:00;;;;;;;6.50;2.42;;;;;;;;;;4987113;28;95040;-81
2023/07/12 11:35:42;;;;;;;8.80;2.10;;;;;;;;;;4986901;28;93181;-80
2023/07/12 11:38:22;;;;;;;5.82;2.05;;;;;;;;;;4982882;28;93216;-82
2023/07/12 11:40:50;;;;;;;6.43;2.17;;;;;;;;;;4995659;28;93218;-82
2023/07/12 11:43:24;;;;;;;7.75;1.90;;;;;;;;;;4986646;28;92846;-82
2023/07/12 11:45:51;;;;;;;8.57;1.70;;;;;;;;;;4991080;28;93747;-83
2023/07/12 11:48:18;;;;;;;;;;;;;;;;;;4992322;28;93217;-84
2023/07/12 11:50:47;;;;;;;7.15;2.03;;;;;;;;;;4998590;28;93158;-84
2023/07/12 11:53:14;;;;;;;5.72;1.70;;;;;;;;;;4991248;28;96666;-83
2023/07/12 11:55:41;;;;;;;8.35;2.47;;;;;;;;;;4982217;28;93021;-84
2023/07/12 11:58:14;;;;;;;7.18;1.95;;;;;;;;;;4997757;28;92496;-85
2023/07/12 12:00:41;;;;;;;8.63;2.38;;;;;;;;;;4982121;28;95786;-83
2023/07/12 12:03:11;;;;;;;8.13;2.15;;;;;;;;;;4990508;28;92470;-85
2023/07/12 12:05:39;;;;;;;9.65;2.40;;;;;;;;;;4976740;28;93055;-84
2023/07/12 12:08:06;;;;;;;8.57;2.40;;;;;;;;;;5000323;28;93135;-83
2023/07/12 12:10:37;;;;;;;6.43;2.30;;;;;;;;;;4983144;28;91997;-82
2023/07/12 12:13:23;;;;;;;6.75;2.58;;;;;;;;;;4990555;28;92610;-83
2023/07/12 12:16:11;;;;;;;5.40;2.03;;;;;;;;;;4989706;28;92476;-83
2023/07/12 12:18:48;;;;;;;7.35;2.10;;;;;;;;;;4986844;28;95913;-82
2023/07/12 12:21:16;;;;;;;7.30;2.38;;;;;;;;;;4984647;28;95456;-82
2023/07/12 12:23:50;;;;;;;7.32;2.30;;;;;;;;;;4991189;28;92609;-83
2023/07/12 12:26:28;;;;;;;7.82;2.42;;;;;;;;;;4996825;28;93959;-83
2023/07/12 12:28:57;;;;;;;7.35;2.63;;;;;;;;;;4990528;28;92664;-81
2023/07/12 12:31:26;;;;;;;8.52;2.42;;;;;;;;;;4982179;28;92978;-83
2023/07/12 12:34:03;;;;;;;7.53;2.20;;;;;;;;;;4998468;28;92469;-81
2023/07/12 12:36:30;;;;;;;6.97;2.20;;;;;;;;;;4989739;28;92791;-80
2023/07/12 12:38:57;;;;;;;;;;;;;;;;;;4986358;28;92414;-82
2023/07/12 12:41:30;;;;;;;8.45;2.13;;;;;;;;;;4984327;28;104466;-83
2023/07/12 12:43:57;;;;;;;;;;;;;;;;;;5003016;28;97068;-81
2023/07/12 12:46:24;;;;;;;5.63;1.95;;;;;;;;;;5001119;28;105490;-84
2023/07/12 12:48:52;;;;;;;7.78;2.15;;;;;;;;;;4995215;28;94887;-81
2023/07/12 12:51:29;;;;;;;7.55;2.50;;;;;;;;;;4990927;28;92912;-83
2023/07/12 12:53:59;;;;;;;5.97;2.10;;;;;;;;;;4999350;28;92546;-85
2023/07/12 12:56:37;;;;;;;5.45;2.10;;;;;;;;;;5005105;28;93072;-83
2023/07/12 12:59:11;;;;;;;5.15;1.83;;;;;;;;;;5004123;28;92344;-83
2023/07/12 13:01:41;;;;;;;8.52;2.17;;;;;;;;;;5000695;28;91995;-82
2023/07/12 13:04:28;;;;;;;8.02;2.17;;;;;;;;;;5009969;28;93062;-81
2023/07/12 13:07:22;;;;;;;7.20;2.35;;;;;;;;;;5003545;28;92392;-81
2023/07/12 13:10:05;;;;;;;6.65;1.73;;;;;;;;;;4999492;28;94472;-84
2023/07/12 13:12:36;;;;;;;7.57;1.90;;;;;;;;;;5006143;28;92554;-82
2023/07/12 13:15:06;;;;;;;7.63;1.60;;;;;;;;;;5014298;28;94399;-82
2023/07/12 13:17:35;;;;;;;5.63;1.90;;;;;;;;;;4991258;28;92438;-80
2023/07/12 13:20:16;;;;;;;7.75;1.90;;;;;;;;;;5032917;28;92415;-80
2023/07/12 13:22:45;;;;;;;5.35;1.65;;;;;;;;;;5000362;28;93545;-82
2023/07/12 13:25:11;;;;;;;5.30;1.70;;;;;;;;;;4983548;28;92504;-81
2023/07/12 13:27:39;;;;;;;5.32;1.60;;;;;;;;;;4973202;28;91707;-81
2023/07/12 13:30:11;;;;;;;3.67;1.50;;;;;;;;;;4990115;28;92585;-81
2023/07/12 13:32:38;;;;;;;5.25;1.80;;;;;;;;;;4985191;28;92741;-82
2023/07/12 13:35:05;;;;;;;5.25;1.70;;;;;;;;;;4982206;28;95285;-81
2023/07/12 13:37:36;;;;;;;5.25;1.63;;;;;;;;;;4986991;28;93122;-82
2023/07/12 13:40:08;;;;;;;;;;;;;;;;;;4968646;28;92970;-80
2023/07/12 13:42:35;;;;;;;5.03;1.63;;;;;;;;;;4968291;28;93122;-81
2023/07/12 13:45:04;;;;;;;4.75;1.50;;;;;;;;;;4981193;28;93196;-81
2023/07/12 13:47:34;;;;;;;5.70;1.60;;;;;;;;;;4979930;28;92996;-82
2023/07/12 13:50:06;;;;;;;5.35;1.77;;;;;;;;;;4972422;28;93085;-84
2023/07/12 13:52:33;;;;;;;6.40;1.60;;;;;;;;;;4987311;28;92276;-82
2023/07/12 13:55:00;;;;;;;5.85;1.48;;;;;;;;;;4978967;28;93005;-80
2023/07/12 13:57:30;;;;;;;3.30;1.45;;;;;;;;;;4990231;28;93585;-83
2023/07/12 13:59:56;;;;;;;5.55;1.80;;;;;;;;;;4971305;28;94872;-84
2023/07/12 14:02:35;;;;;;;4.63;1.50;;;;;;;;;;4981070;28;95237;-80
2023/07/12 14:05:06;;;;;;;5.57;1.50;;;;;;;;;;4982316;28;93301;-82
2023/07/12 14:07:37;;;;;;;4.55;1.50;;;;;;;;;;4972435;28;92435;-81
2023/07/12 14:10:10;;;;;;;3.88;1.48;;;;;;;;;;4989456;28;92898;-81
2023/07/12 14:12:44;;;;;;;3.40;1.38;;;;;;;;;;4986177;28;95052;-83
2023/07/12 14:15:14;;;;;;;4.18;1.35;;;;;;;;;;4979847;28;93138;-83
2023/07/12 14:17:41;;;;;;;3.85;1.48;;;;;;;;;;4972267;28;92870;-81
2023/07/12 14:20:08;;;;;;;3.85;1.40;;;;;;;;;;5005479;28;93050;-82
2023/07/12 14:22:36;;;;;;;4.03;1.40;;;;;;;;;;4985965;28;92920;-83
2023/07/12 14:25:03;;;;;;;3.80;1.40;;;;;;;;;;4983740;28;95644;-82
2023/07/12 14:27:32;;;;;;;5.85;1.48;;;;;;;;;;4986358;28;92518;-81
2023/07/12 14:30:00;;;;;;;5.32;1.40;;;;;;;;;;4977549;28;92872;-80
2023/07/12 14:32:30;;;;;;;3.80;1.58;;;;;;;;;;4972596;28;94569;-81
2023/07/12 14:34:57;;;;;;;5.75;1.50;;;;;;;;;;4999206;28;92601;-80
2023/07/12 14:37:24;;;;;;;5.53;1.70;;;;;;;;;;4971945;28;93178;-80
2023/07/12 14:39:51;;;;;;;6.00;1.77;;;;;;;;;;4976640;28;92910;-81
2023/07/12 14:42:17;;;;;;;4.88;1.60;;;;;;;;;;4991359;28;92825;-82
2023/07/12 14:44:44;;;;;;;4.82;1.58;;;;;;;;;;4991380;28;93833;-80
2023/07/12 14:47:11;;;;;;;4.70;1.50;;;;;;;;;;4984028;28;92873;-80
2023/07/12 14:49:38;;;;;;;3.17;1.42;;;;;;;;;;4995221;28;97518;-82